sensor_id;sensor_type;location;lat;lon;timestamp;P1;durP1;ratioP1;P2;durP2;ratioP2
18499;SDS011;9379;52.134;11.576;2023-05-10T00:00:32;3.40;;;2.75;;
18499;SDS011;9379;52.134;11.576;2023-05-10T00:02:59;2.50;;;2.30;;
18499;SDS011;9379;52.134;11.576;2023-05-10T00:05:26;4.22;;;3.78;;
18499;SDS011;9379;52.134;11.576;2023-05-10T00:07:53;5.32;;;3.50;;
18499;SDS011;9379;52.134;11.576;2023-05-10T00:10:20;3.78;;;3.47;;
18499;SDS011;9379;52.134;11.576;2023-05-10T00:12:46;2.97;;;2.78;;
18499;SDS011;9379;52.134;11.576;2023-05-10T00:15:15;3.05;;;2.78;;
18499;SDS011;9379;52.134;11.576;2023-05-10T00:17:42;3.50;;;2.88;;
18499;SDS011;9379;52.134;11.576;2023-05-10T00:20:09;2.35;;;2.15;;
18499;SDS011;9379;52.134;11.576;2023-05-10T00:22:36;3.40;;;3.13;;
18499;SDS011;9379;52.134;11.576;2023-05-10T00:25:04;3.20;;;2.95;;
18499;SDS011;9379;52.134;11.576;2023-05-10T00:27:31;4.97;;;3.95;;
18499;SDS011;9379;52.134;11.576;2023-05-10T00:29:58;3.83;;;2.67;;
18499;SDS011;9379;52.134;11.576;2023-05-10T00:32:26;3.58;;;2.75;;
18499;SDS011;9379;52.134;11.576;2023-05-10T00:34:53;4.00;;;3.67;;
18499;SDS011;9379;52.134;11.576;2023-05-10T00:37:19;3.55;;;3.25;;
18499;SDS011;9379;52.134;11.576;2023-05-10T00:39:46;6.72;;;3.40;;
18499;SDS011;9379;52.134;11.576;2023-05-10T00:42:13;2.60;;;2.45;;
18499;SDS011;9379;52.134;11.576;2023-05-10T00:44:40;3.10;;;2.90;;
18499;SDS011;9379;52.134;11.576;2023-05-10T00:47:06;2.70;;;2.35;;
18499;SDS011;9379;52.134;11.576;2023-05-10T00:49:35;2.60;;;2.40;;
18499;SDS011;9379;52.134;11.576;2023-05-10T00:52:02;3.28;;;2.97;;
18499;SDS011;9379;52.134;11.576;2023-05-10T00:54:30;3.42;;;2.45;;
18499;SDS011;9379;52.134;11.576;2023-05-10T00:56:57;3.10;;;2.70;;
18499;SDS011;9379;52.134;11.576;2023-05-10T00:59:23;2.80;;;2.60;;
18499;SDS011;9379;52.134;11.576;2023-05-10T01:01:51;2.00;;;1.90;;
18499;SDS011;9379;52.134;11.576;2023-05-10T01:04:18;2.95;;;2.65;;
18499;SDS011;9379;52.134;11.576;2023-05-10T01:06:51;2.65;;;2.45;;
18499;SDS011;9379;52.134;11.576;2023-05-10T01:09:19;2.13;;;2.03;;
18499;SDS011;9379;52.134;11.576;2023-05-10T01:11:46;3.10;;;2.85;;
18499;SDS011;9379;52.134;11.576;2023-05-10T01:14:14;3.35;;;3.05;;
18499;SDS011;9379;52.134;11.576;2023-05-10T01:16:44;3.95;;;3.05;;
18499;SDS011;9379;52.134;11.576;2023-05-10T01:19:12;2.80;;;2.60;;
18499;SDS011;9379;52.134;11.576;2023-05-10T01:21:48;2.17;;;2.08;;
18499;SDS011;9379;52.134;11.576;2023-05-10T01:24:26;3.90;;;3.53;;
18499;SDS011;9379;52.134;11.576;2023-05-10T01:30:08;2.67;;;2.47;;
18499;SDS011;9379;52.134;11.576;2023-05-10T01:32:54;2.30;;;2.17;;
18499;SDS011;9379;52.134;11.576;2023-05-10T01:35:26;3.75;;;2.20;;
18499;SDS011;9379;52.134;11.576;2023-05-10T01:38:01;4.35;;;4.05;;
18499;SDS011;9379;52.134;11.576;2023-05-10T01:40:35;2.42;;;2.25;;
18499;SDS011;9379;52.134;11.576;2023-05-10T01:43:08;3.10;;;2.72;;
18499;SDS011;9379;52.134;11.576;2023-05-10T01:45:45;3.35;;;3.05;;
18499;SDS011;9379;52.134;11.576;2023-05-10T01:48:18;3.00;;;2.70;;
18499;SDS011;9379;52.134;11.576;2023-05-10T01:50:47;2.90;;;2.67;;
18499;SDS011;9379;52.134;11.576;2023-05-10T01:53:17;2.83;;;2.53;;
18499;SDS011;9379;52.134;11.576;2023-05-10T01:55:46;6.50;;;3.25;;
18499;SDS011;9379;52.134;11.576;2023-05-10T01:58:17;3.35;;;2.50;;
18499;SDS011;9379;52.134;11.576;2023-05-10T02:00:47;4.13;;;3.20;;
18499;SDS011;9379;52.134;11.576;2023-05-10T02:03:18;2.92;;;2.65;;
18499;SDS011;9379;52.134;11.576;2023-05-10T02:05:48;3.20;;;2.90;;
18499;SDS011;9379;52.134;11.576;2023-05-10T02:08:16;2.65;;;2.45;;
18499;SDS011;9379;52.134;11.576;2023-05-10T02:10:45;3.67;;;3.25;;
18499;SDS011;9379;52.134;11.576;2023-05-10T02:13:13;3.25;;;2.95;;
18499;SDS011;9379;52.134;11.576;2023-05-10T02:15:42;3.78;;;3.25;;
18499;SDS011;9379;52.134;11.576;2023-05-10T02:18:10;2.85;;;2.60;;
18499;SDS011;9379;52.134;11.576;2023-05-10T02:20:39;3.38;;;3.08;;
18499;SDS011;9379;52.134;11.576;2023-05-10T02:23:06;3.40;;;3.10;;
18499;SDS011;9379;52.134;11.576;2023-05-10T02:25:34;2.92;;;2.65;;
18499;SDS011;9379;52.134;11.576;2023-05-10T02:28:04;5.20;;;2.67;;
18499;SDS011;9379;52.134;11.576;2023-05-10T02:30:32;2.80;;;2.60;;
18499;SDS011;9379;52.134;11.576;2023-05-10T02:33:00;3.55;;;3.28;;
18499;SDS011;9379;52.134;11.576;2023-05-10T02:35:28;3.25;;;2.95;;
18499;SDS011;9379;52.134;11.576;2023-05-10T02:37:56;3.08;;;2.75;;
18499;SDS011;9379;52.134;11.576;2023-05-10T02:40:24;2.95;;;2.70;;
18499;SDS011;9379;52.134;11.576;2023-05-10T02:42:54;3.40;;;3.08;;
18499;SDS011;9379;52.134;11.576;2023-05-10T02:45:24;2.58;;;2.38;;
18499;SDS011;9379;52.134;11.576;2023-05-10T02:47:54;5.10;;;3.60;;
18499;SDS011;9379;52.134;11.576;2023-05-10T02:50:21;4.68;;;3.30;;
18499;SDS011;9379;52.134;11.576;2023-05-10T02:52:51;3.10;;;2.90;;
18499;SDS011;9379;52.134;11.576;2023-05-10T02:55:22;3.10;;;2.72;;
18499;SDS011;9379;52.134;11.576;2023-05-10T02:57:58;2.92;;;2.67;;
18499;SDS011;9379;52.134;11.576;2023-05-10T03:00:26;3.38;;;3.15;;
18499;SDS011;9379;52.134;11.576;2023-05-10T03:02:53;2.55;;;2.38;;
18499;SDS011;9379;52.134;11.576;2023-05-10T03:05:20;2.83;;;2.58;;
18499;SDS011;9379;52.134;11.576;2023-05-10T03:07:47;2.53;;;2.35;;
18499;SDS011;9379;52.134;11.576;2023-05-10T03:10:14;3.97;;;3.28;;
18499;SDS011;9379;52.134;11.576;2023-05-10T03:12:47;2.58;;;2.38;;
18499;SDS011;9379;52.134;11.576;2023-05-10T03:15:25;3.13;;;2.85;;
18499;SDS011;9379;52.134;11.576;2023-05-10T03:18:01;2.78;;;2.50;;
18499;SDS011;9379;52.134;11.576;2023-05-10T03:20:36;2.47;;;2.35;;
18499;SDS011;9379;52.134;11.576;2023-05-10T03:23:11;2.90;;;2.70;;
18499;SDS011;9379;52.134;11.576;2023-05-10T03:25:39;3.85;;;3.22;;
18499;SDS011;9379;52.134;11.576;2023-05-10T03:28:10;8.35;;;2.88;;
18499;SDS011;9379;52.134;11.576;2023-05-10T03:30:38;3.50;;;2.63;;
18499;SDS011;9379;52.134;11.576;2023-05-10T03:33:05;4.70;;;3.65;;
18499;SDS011;9379;52.134;11.576;2023-05-10T03:35:32;2.75;;;2.40;;
18499;SDS011;9379;52.134;11.576;2023-05-10T03:37:59;6.72;;;3.53;;
18499;SDS011;9379;52.134;11.576;2023-05-10T03:40:26;2.83;;;2.58;;
18499;SDS011;9379;52.134;11.576;2023-05-10T03:42:56;3.67;;;3.38;;
18499;SDS011;9379;52.134;11.576;2023-05-10T03:45:24;3.03;;;2.83;;
18499;SDS011;9379;52.134;11.576;2023-05-10T03:47:51;3.05;;;2.75;;
18499;SDS011;9379;52.134;11.576;2023-05-10T03:50:19;2.95;;;2.58;;
18499;SDS011;9379;52.134;11.576;2023-05-10T03:52:45;3.25;;;2.80;;
18499;SDS011;9379;52.134;11.576;2023-05-10T03:55:12;3.00;;;2.78;;
18499;SDS011;9379;52.134;11.576;2023-05-10T03:57:39;5.72;;;3.72;;
18499;SDS011;9379;52.134;11.576;2023-05-10T04:00:06;3.35;;;3.05;;
18499;SDS011;9379;52.134;11.576;2023-05-10T04:02:34;3.03;;;2.65;;
18499;SDS011;9379;52.134;11.576;2023-05-10T04:05:01;3.28;;;2.72;;
18499;SDS011;9379;52.134;11.576;2023-05-10T04:07:28;2.40;;;2.22;;
18499;SDS011;9379;52.134;11.576;2023-05-10T04:09:55;2.92;;;2.65;;
18499;SDS011;9379;52.134;11.576;2023-05-10T04:12:22;2.83;;;2.63;;
18499;SDS011;9379;52.134;11.576;2023-05-10T04:14:49;3.30;;;3.05;;
18499;SDS011;9379;52.134;11.576;2023-05-10T04:17:17;2.92;;;2.72;;
18499;SDS011;9379;52.134;11.576;2023-05-10T04:19:46;2.97;;;2.67;;
18499;SDS011;9379;52.134;11.576;2023-05-10T04:22:13;2.58;;;2.38;;
18499;SDS011;9379;52.134;11.576;2023-05-10T04:24:39;3.03;;;2.83;;
18499;SDS011;9379;52.134;11.576;2023-05-10T04:27:06;4.43;;;2.72;;
18499;SDS011;9379;52.134;11.576;2023-05-10T04:29:33;2.95;;;2.65;;
18499;SDS011;9379;52.134;11.576;2023-05-10T04:31:59;5.95;;;3.75;;
18499;SDS011;9379;52.134;11.576;2023-05-10T04:34:27;3.58;;;3.25;;
18499;SDS011;9379;52.134;11.576;2023-05-10T04:36:55;2.95;;;2.70;;
18499;SDS011;9379;52.134;11.576;2023-05-10T04:39:22;4.05;;;3.67;;
18499;SDS011;9379;52.134;11.576;2023-05-10T04:41:49;3.15;;;2.95;;
18499;SDS011;9379;52.134;11.576;2023-05-10T04:44:15;4.18;;;3.00;;
18499;SDS011;9379;52.134;11.576;2023-05-10T04:46:42;2.45;;;2.25;;
18499;SDS011;9379;52.134;11.576;2023-05-10T04:49:09;2.97;;;2.78;;
18499;SDS011;9379;52.134;11.576;2023-05-10T04:51:36;2.67;;;2.47;;
18499;SDS011;9379;52.134;11.576;2023-05-10T04:54:04;2.80;;;2.55;;
18499;SDS011;9379;52.134;11.576;2023-05-10T04:56:31;2.95;;;2.65;;
18499;SDS011;9379;52.134;11.576;2023-05-10T04:58:57;3.22;;;2.80;;
18499;SDS011;9379;52.134;11.576;2023-05-10T05:01:24;5.07;;;3.50;;
18499;SDS011;9379;52.134;11.576;2023-05-10T05:03:51;3.75;;;3.50;;
18499;SDS011;9379;52.134;11.576;2023-05-10T05:06:18;3.17;;;2.88;;
18499;SDS011;9379;52.134;11.576;2023-05-10T05:08:45;3.15;;;2.95;;
18499;SDS011;9379;52.134;11.576;2023-05-10T05:11:15;3.38;;;2.78;;
18499;SDS011;9379;52.134;11.576;2023-05-10T05:13:42;3.80;;;2.90;;
18499;SDS011;9379;52.134;11.576;2023-05-10T05:16:09;2.53;;;2.22;;
18499;SDS011;9379;52.134;11.576;2023-05-10T05:18:36;3.17;;;2.88;;
18499;SDS011;9379;52.134;11.576;2023-05-10T05:21:03;3.92;;;2.80;;
18499;SDS011;9379;52.134;11.576;2023-05-10T05:23:30;2.78;;;2.58;;
18499;SDS011;9379;52.134;11.576;2023-05-10T05:25:57;4.53;;;3.40;;
18499;SDS011;9379;52.134;11.576;2023-05-10T05:28:25;3.35;;;3.05;;
18499;SDS011;9379;52.134;11.576;2023-05-10T05:30:51;6.80;;;3.50;;
18499;SDS011;9379;52.134;11.576;2023-05-10T05:33:18;3.47;;;3.17;;
18499;SDS011;9379;52.134;11.576;2023-05-10T05:35:45;2.85;;;2.65;;
18499;SDS011;9379;52.134;11.576;2023-05-10T05:38:15;5.50;;;4.13;;
18499;SDS011;9379;52.134;11.576;2023-05-10T05:40:42;3.60;;;2.88;;
18499;SDS011;9379;52.134;11.576;2023-05-10T05:43:10;4.00;;;3.70;;
18499;SDS011;9379;52.134;11.576;2023-05-10T05:45:38;3.90;;;2.95;;
18499;SDS011;9379;52.134;11.576;2023-05-10T05:48:05;2.85;;;2.65;;
18499;SDS011;9379;52.134;11.576;2023-05-10T05:50:31;5.18;;;3.53;;
18499;SDS011;9379;52.134;11.576;2023-05-10T05:52:58;4.28;;;3.10;;
18499;SDS011;9379;52.134;11.576;2023-05-10T05:55:25;5.18;;;2.42;;
18499;SDS011;9379;52.134;11.576;2023-05-10T05:57:52;3.20;;;2.90;;
18499;SDS011;9379;52.134;11.576;2023-05-10T06:00:19;3.95;;;3.65;;
18499;SDS011;9379;52.134;11.576;2023-05-10T06:02:47;3.65;;;3.20;;
18499;SDS011;9379;52.134;11.576;2023-05-10T06:05:14;4.28;;;3.83;;
18499;SDS011;9379;52.134;11.576;2023-05-10T06:07:41;4.80;;;3.15;;
18499;SDS011;9379;52.134;11.576;2023-05-10T06:10:08;3.67;;;3.00;;
18499;SDS011;9379;52.134;11.576;2023-05-10T06:12:35;4.35;;;3.42;;
18499;SDS011;9379;52.134;11.576;2023-05-10T06:15:01;3.75;;;3.45;;
18499;SDS011;9379;52.134;11.576;2023-05-10T06:17:28;5.13;;;3.30;;
18499;SDS011;9379;52.134;11.576;2023-05-10T06:19:57;7.78;;;2.95;;
18499;SDS011;9379;52.134;11.576;2023-05-10T06:22:24;16.45;;;3.25;;
18499;SDS011;9379;52.134;11.576;2023-05-10T06:24:50;2.67;;;2.47;;
18499;SDS011;9379;52.134;11.576;2023-05-10T06:27:17;3.85;;;3.45;;
18499;SDS011;9379;52.134;11.576;2023-05-10T06:29:44;4.65;;;3.22;;
18499;SDS011;9379;52.134;11.576;2023-05-10T06:32:11;5.05;;;3.95;;
18499;SDS011;9379;52.134;11.576;2023-05-10T06:34:37;6.20;;;3.17;;
18499;SDS011;9379;52.134;11.576;2023-05-10T06:37:05;4.15;;;3.83;;
18499;SDS011;9379;52.134;11.576;2023-05-10T06:39:32;4.07;;;3.67;;
18499;SDS011;9379;52.134;11.576;2023-05-10T06:41:59;5.32;;;3.97;;
18499;SDS011;9379;52.134;11.576;2023-05-10T06:44:27;4.93;;;3.75;;
18499;SDS011;9379;52.134;11.576;2023-05-10T06:46:54;3.17;;;2.97;;
18499;SDS011;9379;52.134;11.576;2023-05-10T06:49:21;8.13;;;4.40;;
18499;SDS011;9379;52.134;11.576;2023-05-10T06:51:48;3.85;;;3.45;;
18499;SDS011;9379;52.134;11.576;2023-05-10T06:54:16;6.57;;;3.45;;
18499;SDS011;9379;52.134;11.576;2023-05-10T06:56:42;3.15;;;2.95;;
18499;SDS011;9379;52.134;11.576;2023-05-10T06:59:09;6.65;;;3.85;;
18499;SDS011;9379;52.134;11.576;2023-05-10T07:01:37;3.72;;;3.17;;
18499;SDS011;9379;52.134;11.576;2023-05-10T07:04:04;4.63;;;4.22;;
18499;SDS011;9379;52.134;11.576;2023-05-10T07:06:32;3.78;;;3.45;;
18499;SDS011;9379;52.134;11.576;2023-05-10T07:08:59;4.65;;;4.20;;
18499;SDS011;9379;52.134;11.576;2023-05-10T07:11:27;4.40;;;4.00;;
18499;SDS011;9379;52.134;11.576;2023-05-10T07:13:54;8.50;;;6.25;;
18499;SDS011;9379;52.134;11.576;2023-05-10T07:16:21;4.65;;;4.25;;
18499;SDS011;9379;52.134;11.576;2023-05-10T07:18:48;3.67;;;3.38;;
18499;SDS011;9379;52.134;11.576;2023-05-10T07:21:15;3.90;;;3.47;;
18499;SDS011;9379;52.134;11.576;2023-05-10T07:23:42;4.18;;;3.78;;
18499;SDS011;9379;52.134;11.576;2023-05-10T07:26:09;7.90;;;5.25;;
18499;SDS011;9379;52.134;11.576;2023-05-10T07:28:37;4.07;;;3.55;;
18499;SDS011;9379;52.134;11.576;2023-05-10T07:31:04;3.72;;;3.42;;
18499;SDS011;9379;52.134;11.576;2023-05-10T07:33:30;3.38;;;3.13;;
18499;SDS011;9379;52.134;11.576;2023-05-10T07:35:57;3.90;;;3.00;;
18499;SDS011;9379;52.134;11.576;2023-05-10T07:38:24;2.70;;;2.50;;
18499;SDS011;9379;52.134;11.576;2023-05-10T07:40:51;3.42;;;3.08;;
18499;SDS011;9379;52.134;11.576;2023-05-10T07:43:17;3.97;;;3.67;;
18499;SDS011;9379;52.134;11.576;2023-05-10T07:45:45;6.28;;;3.88;;
18499;SDS011;9379;52.134;11.576;2023-05-10T07:48:12;3.75;;;3.45;;
18499;SDS011;9379;52.134;11.576;2023-05-10T07:50:39;3.28;;;2.97;;
18499;SDS011;9379;52.134;11.576;2023-05-10T07:53:06;6.50;;;4.80;;
18499;SDS011;9379;52.134;11.576;2023-05-10T07:55:32;4.18;;;3.60;;
18499;SDS011;9379;52.134;11.576;2023-05-10T07:57:59;4.13;;;3.70;;
18499;SDS011;9379;52.134;11.576;2023-05-10T08:00:27;3.25;;;3.00;;
18499;SDS011;9379;52.134;11.576;2023-05-10T08:02:55;4.20;;;3.80;;
18499;SDS011;9379;52.134;11.576;2023-05-10T08:05:22;3.70;;;3.25;;
18499;SDS011;9379;52.134;11.576;2023-05-10T08:07:48;9.70;;;5.35;;
18499;SDS011;9379;52.134;11.576;2023-05-10T08:10:15;4.88;;;4.03;;
18499;SDS011;9379;52.134;11.576;2023-05-10T08:12:42;4.25;;;3.67;;
18499;SDS011;9379;52.134;11.576;2023-05-10T08:15:09;5.00;;;4.50;;
18499;SDS011;9379;52.134;11.576;2023-05-10T08:17:37;5.38;;;4.88;;
18499;SDS011;9379;52.134;11.576;2023-05-10T08:20:06;4.97;;;3.60;;
18499;SDS011;9379;52.134;11.576;2023-05-10T08:22:33;21.27;;;5.95;;
18499;SDS011;9379;52.134;11.576;2023-05-10T08:25:00;8.93;;;5.72;;
18499;SDS011;9379;52.134;11.576;2023-05-10T08:27:27;3.85;;;3.55;;
18499;SDS011;9379;52.134;11.576;2023-05-10T08:29:54;3.47;;;3.17;;
18499;SDS011;9379;52.134;11.576;2023-05-10T08:32:20;7.07;;;3.58;;
18499;SDS011;9379;52.134;11.576;2023-05-10T08:34:47;5.50;;;4.90;;
18499;SDS011;9379;52.134;11.576;2023-05-10T08:37:15;5.00;;;4.60;;
18499;SDS011;9379;52.134;11.576;2023-05-10T08:39:42;6.53;;;4.60;;
18499;SDS011;9379;52.134;11.576;2023-05-10T08:42:10;5.55;;;4.57;;
18499;SDS011;9379;52.134;11.576;2023-05-10T08:44:38;6.55;;;4.63;;
18499;SDS011;9379;52.134;11.576;2023-05-10T08:47:06;4.00;;;3.60;;
18499;SDS011;9379;52.134;11.576;2023-05-10T08:49:33;6.75;;;4.60;;
18499;SDS011;9379;52.134;11.576;2023-05-10T08:52:02;6.18;;;5.03;;
18499;SDS011;9379;52.134;11.576;2023-05-10T08:54:32;5.15;;;4.68;;
18499;SDS011;9379;52.134;11.576;2023-05-10T08:56:59;8.60;;;4.43;;
18499;SDS011;9379;52.134;11.576;2023-05-10T08:59:27;4.28;;;3.97;;
18499;SDS011;9379;52.134;11.576;2023-05-10T09:01:53;5.70;;;4.95;;
18499;SDS011;9379;52.134;11.576;2023-05-10T09:04:23;9.27;;;5.97;;
18499;SDS011;9379;52.134;11.576;2023-05-10T09:06:50;4.45;;;3.95;;
18499;SDS011;9379;52.134;11.576;2023-05-10T09:09:17;3.92;;;3.53;;
18499;SDS011;9379;52.134;11.576;2023-05-10T09:11:47;3.53;;;3.28;;
18499;SDS011;9379;52.134;11.576;2023-05-10T09:14:14;5.63;;;3.30;;
18499;SDS011;9379;52.134;11.576;2023-05-10T09:16:42;3.80;;;3.45;;
18499;SDS011;9379;52.134;11.576;2023-05-10T09:19:09;4.10;;;3.17;;
18499;SDS011;9379;52.134;11.576;2023-05-10T09:21:36;3.88;;;3.40;;
18499;SDS011;9379;52.134;11.576;2023-05-10T09:24:04;4.68;;;4.30;;
18499;SDS011;9379;52.134;11.576;2023-05-10T09:26:31;3.08;;;2.85;;
18499;SDS011;9379;52.134;11.576;2023-05-10T09:29:00;5.13;;;4.63;;
18499;SDS011;9379;52.134;11.576;2023-05-10T09:31:43;7.43;;;4.90;;
18499;SDS011;9379;52.134;11.576;2023-05-10T09:34:15;4.05;;;3.28;;
18499;SDS011;9379;52.134;11.576;2023-05-10T09:36:52;5.65;;;5.10;;
18499;SDS011;9379;52.134;11.576;2023-05-10T09:39:21;3.97;;;3.67;;
18499;SDS011;9379;52.134;11.576;2023-05-10T09:41:57;10.70;;;3.67;;
18499;SDS011;9379;52.134;11.576;2023-05-10T09:44:26;3.60;;;3.30;;
18499;SDS011;9379;52.134;11.576;2023-05-10T09:46:53;4.55;;;4.15;;
18499;SDS011;9379;52.134;11.576;2023-05-10T09:49:20;4.55;;;4.20;;
18499;SDS011;9379;52.134;11.576;2023-05-10T09:51:47;10.75;;;4.85;;
18499;SDS011;9379;52.134;11.576;2023-05-10T09:54:16;7.35;;;4.35;;
18499;SDS011;9379;52.134;11.576;2023-05-10T09:56:43;5.28;;;4.88;;
18499;SDS011;9379;52.134;11.576;2023-05-10T09:59:11;5.60;;;5.10;;
18499;SDS011;9379;52.134;11.576;2023-05-10T10:01:39;5.00;;;4.60;;
18499;SDS011;9379;52.134;11.576;2023-05-10T10:04:08;5.90;;;4.20;;
18499;SDS011;9379;52.134;11.576;2023-05-10T10:06:36;6.25;;;5.68;;
18499;SDS011;9379;52.134;11.576;2023-05-10T10:09:03;5.95;;;5.35;;
18499;SDS011;9379;52.134;11.576;2023-05-10T10:11:31;5.28;;;4.78;;
18499;SDS011;9379;52.134;11.576;2023-05-10T10:13:58;6.07;;;4.95;;
18499;SDS011;9379;52.134;11.576;2023-05-10T10:16:25;5.07;;;4.68;;
18499;SDS011;9379;52.134;11.576;2023-05-10T10:18:54;3.95;;;3.58;;
18499;SDS011;9379;52.134;11.576;2023-05-10T10:21:21;6.38;;;4.68;;
18499;SDS011;9379;52.134;11.576;2023-05-10T10:23:48;7.80;;;5.25;;
18499;SDS011;9379;52.134;11.576;2023-05-10T10:26:16;8.50;;;6.20;;
18499;SDS011;9379;52.134;11.576;2023-05-10T10:28:45;12.57;;;6.78;;
18499;SDS011;9379;52.134;11.576;2023-05-10T10:31:21;6.63;;;5.85;;
18499;SDS011;9379;52.134;11.576;2023-05-10T10:34:01;7.32;;;5.10;;
18499;SDS011;9379;52.134;11.576;2023-05-10T10:36:31;5.63;;;5.07;;
18499;SDS011;9379;52.134;11.576;2023-05-10T10:39:00;6.43;;;5.65;;
18499;SDS011;9379;52.134;11.576;2023-05-10T10:41:32;8.07;;;6.10;;
18499;SDS011;9379;52.134;11.576;2023-05-10T10:47:02;4.57;;;4.15;;
18499;SDS011;9379;52.134;11.576;2023-05-10T10:49:37;9.88;;;6.63;;
18499;SDS011;9379;52.134;11.576;2023-05-10T10:52:20;7.70;;;5.28;;
18499;SDS011;9379;52.134;11.576;2023-05-10T10:54:52;7.05;;;6.43;;
18499;SDS011;9379;52.134;11.576;2023-05-10T10:57:23;5.85;;;5.05;;
18499;SDS011;9379;52.134;11.576;2023-05-10T10:59:51;6.40;;;5.22;;
18499;SDS011;9379;52.134;11.576;2023-05-10T11:02:44;6.03;;;5.43;;
18499;SDS011;9379;52.134;11.576;2023-05-10T11:05:24;7.20;;;6.40;;
18499;SDS011;9379;52.134;11.576;2023-05-10T11:08:00;5.28;;;4.85;;
18499;SDS011;9379;52.134;11.576;2023-05-10T11:10:32;4.82;;;4.35;;
18499;SDS011;9379;52.134;11.576;2023-05-10T11:13:00;9.40;;;5.32;;
18499;SDS011;9379;52.134;11.576;2023-05-10T11:15:30;5.78;;;5.28;;
18499;SDS011;9379;52.134;11.576;2023-05-10T11:17:57;4.85;;;3.95;;
18499;SDS011;9379;52.134;11.576;2023-05-10T11:20:28;5.50;;;4.95;;
18499;SDS011;9379;52.134;11.576;2023-05-10T11:23:00;5.00;;;4.28;;
18499;SDS011;9379;52.134;11.576;2023-05-10T11:25:40;7.70;;;6.47;;
18499;SDS011;9379;52.134;11.576;2023-05-10T11:28:08;11.20;;;7.72;;
18499;SDS011;9379;52.134;11.576;2023-05-10T11:30:35;8.35;;;6.18;;
18499;SDS011;9379;52.134;11.576;2023-05-10T11:33:02;6.50;;;4.75;;
18499;SDS011;9379;52.134;11.576;2023-05-10T11:35:30;4.68;;;4.30;;
18499;SDS011;9379;52.134;11.576;2023-05-10T11:38:02;8.57;;;7.75;;
18499;SDS011;9379;52.134;11.576;2023-05-10T11:40:32;6.60;;;5.82;;
18499;SDS011;9379;52.134;11.576;2023-05-10T11:42:58;8.73;;;7.93;;
18499;SDS011;9379;52.134;11.576;2023-05-10T11:45:25;7.55;;;6.53;;
18499;SDS011;9379;52.134;11.576;2023-05-10T11:47:53;9.68;;;8.35;;
18499;SDS011;9379;52.134;11.576;2023-05-10T11:50:20;9.57;;;8.63;;
18499;SDS011;9379;52.134;11.576;2023-05-10T11:52:51;10.73;;;9.02;;
18499;SDS011;9379;52.134;11.576;2023-05-10T11:55:18;9.73;;;8.93;;
18499;SDS011;9379;52.134;11.576;2023-05-10T11:57:45;8.60;;;7.82;;
18499;SDS011;9379;52.134;11.576;2023-05-10T12:00:12;7.82;;;6.95;;
18499;SDS011;9379;52.134;11.576;2023-05-10T12:02:39;10.23;;;6.10;;
18499;SDS011;9379;52.134;11.576;2023-05-10T12:05:07;7.53;;;6.93;;
18499;SDS011;9379;52.134;11.576;2023-05-10T12:07:34;6.30;;;5.72;;
18499;SDS011;9379;52.134;11.576;2023-05-10T12:10:09;6.63;;;6.03;;
18499;SDS011;9379;52.134;11.576;2023-05-10T12:12:40;7.82;;;6.78;;
18499;SDS011;9379;52.134;11.576;2023-05-10T12:15:11;9.13;;;7.03;;
18499;SDS011;9379;52.134;11.576;2023-05-10T12:17:39;12.50;;;8.90;;
18499;SDS011;9379;52.134;11.576;2023-05-10T12:20:15;6.45;;;5.85;;
18499;SDS011;9379;52.134;11.576;2023-05-10T12:22:44;15.50;;;9.15;;
18499;SDS011;9379;52.134;11.576;2023-05-10T12:25:13;7.53;;;5.95;;
18499;SDS011;9379;52.134;11.576;2023-05-10T12:27:40;9.77;;;8.85;;
18499;SDS011;9379;52.134;11.576;2023-05-10T12:30:07;7.07;;;6.47;;
18499;SDS011;9379;52.134;11.576;2023-05-10T12:32:38;7.63;;;6.75;;
18499;SDS011;9379;52.134;11.576;2023-05-10T12:35:06;5.72;;;5.13;;
18499;SDS011;9379;52.134;11.576;2023-05-10T12:37:33;11.07;;;7.85;;
18499;SDS011;9379;52.134;11.576;2023-05-10T12:40:00;7.97;;;6.97;;
18499;SDS011;9379;52.134;11.576;2023-05-10T12:42:29;7.93;;;6.93;;
18499;SDS011;9379;52.134;11.576;2023-05-10T12:44:56;7.93;;;7.22;;
18499;SDS011;9379;52.134;11.576;2023-05-10T12:47:23;8.13;;;7.38;;
18499;SDS011;9379;52.134;11.576;2023-05-10T12:49:50;12.38;;;8.70;;
18499;SDS011;9379;52.134;11.576;2023-05-10T12:52:17;6.72;;;6.13;;
18499;SDS011;9379;52.134;11.576;2023-05-10T12:54:43;7.40;;;5.05;;
18499;SDS011;9379;52.134;11.576;2023-05-10T12:57:10;5.18;;;4.40;;
18499;SDS011;9379;52.134;11.576;2023-05-10T12:59:38;4.13;;;3.83;;
18499;SDS011;9379;52.134;11.576;2023-05-10T13:02:05;4.15;;;3.85;;
18499;SDS011;9379;52.134;11.576;2023-05-10T13:04:32;4.43;;;4.03;;
18499;SDS011;9379;52.134;11.576;2023-05-10T13:06:59;4.70;;;4.30;;
18499;SDS011;9379;52.134;11.576;2023-05-10T13:09:26;4.00;;;3.70;;
18499;SDS011;9379;52.134;11.576;2023-05-10T13:11:54;4.47;;;4.07;;
18499;SDS011;9379;52.134;11.576;2023-05-10T13:14:21;3.30;;;3.00;;
18499;SDS011;9379;52.134;11.576;2023-05-10T13:16:49;3.35;;;3.05;;
18499;SDS011;9379;52.134;11.576;2023-05-10T13:19:16;2.17;;;2.08;;
18499;SDS011;9379;52.134;11.576;2023-05-10T13:21:43;2.78;;;2.58;;
18499;SDS011;9379;52.134;11.576;2023-05-10T13:24:10;4.05;;;3.67;;
18499;SDS011;9379;52.134;11.576;2023-05-10T13:26:38;5.20;;;4.72;;
18499;SDS011;9379;52.134;11.576;2023-05-10T13:29:06;3.35;;;3.05;;
18499;SDS011;9379;52.134;11.576;2023-05-10T13:31:36;2.58;;;2.38;;
18499;SDS011;9379;52.134;11.576;2023-05-10T13:34:04;2.88;;;2.67;;
18499;SDS011;9379;52.134;11.576;2023-05-10T13:36:35;3.20;;;2.40;;
18499;SDS011;9379;52.134;11.576;2023-05-10T13:39:02;3.17;;;2.88;;
18499;SDS011;9379;52.134;11.576;2023-05-10T13:41:30;2.90;;;2.65;;
18499;SDS011;9379;52.134;11.576;2023-05-10T13:43:57;3.53;;;3.22;;
18499;SDS011;9379;52.134;11.576;2023-05-10T13:46:23;2.45;;;2.25;;
18499;SDS011;9379;52.134;11.576;2023-05-10T13:48:50;2.83;;;1.77;;
18499;SDS011;9379;52.134;11.576;2023-05-10T13:51:18;2.55;;;2.38;;
18499;SDS011;9379;52.134;11.576;2023-05-10T13:53:45;3.83;;;3.53;;
18499;SDS011;9379;52.134;11.576;2023-05-10T13:56:12;2.90;;;2.70;;
18499;SDS011;9379;52.134;11.576;2023-05-10T13:58:39;1.65;;;1.55;;
18499;SDS011;9379;52.134;11.576;2023-05-10T14:01:06;1.90;;;1.80;;
18499;SDS011;9379;52.134;11.576;2023-05-10T14:03:33;2.08;;;1.98;;
18499;SDS011;9379;52.134;11.576;2023-05-10T14:05:59;2.20;;;2.00;;
18499;SDS011;9379;52.134;11.576;2023-05-10T14:08:28;2.72;;;2.22;;
18499;SDS011;9379;52.134;11.576;2023-05-10T14:10:54;4.20;;;3.90;;
18499;SDS011;9379;52.134;11.576;2023-05-10T14:13:23;5.00;;;4.53;;
18499;SDS011;9379;52.134;11.576;2023-05-10T14:15:50;7.88;;;4.38;;
18499;SDS011;9379;52.134;11.576;2023-05-10T14:18:17;3.08;;;2.88;;
18499;SDS011;9379;52.134;11.576;2023-05-10T14:20:43;3.08;;;2.88;;
18499;SDS011;9379;52.134;11.576;2023-05-10T14:23:10;4.00;;;3.70;;
18499;SDS011;9379;52.134;11.576;2023-05-10T14:25:39;4.35;;;3.97;;
18499;SDS011;9379;52.134;11.576;2023-05-10T14:28:06;4.03;;;3.72;;
18499;SDS011;9379;52.134;11.576;2023-05-10T14:30:33;3.30;;;2.83;;
18499;SDS011;9379;52.134;11.576;2023-05-10T14:33:01;3.33;;;3.13;;
18499;SDS011;9379;52.134;11.576;2023-05-10T14:35:28;4.15;;;3.85;;
18499;SDS011;9379;52.134;11.576;2023-05-10T14:37:56;4.30;;;4.00;;
18499;SDS011;9379;52.134;11.576;2023-05-10T14:40:23;2.78;;;2.47;;
18499;SDS011;9379;52.134;11.576;2023-05-10T14:42:51;4.22;;;3.83;;
18499;SDS011;9379;52.134;11.576;2023-05-10T14:45:19;4.03;;;3.72;;
18499;SDS011;9379;52.134;11.576;2023-05-10T14:47:46;2.88;;;2.67;;
18499;SDS011;9379;52.134;11.576;2023-05-10T14:50:13;2.78;;;2.58;;
18499;SDS011;9379;52.134;11.576;2023-05-10T14:52:40;5.25;;;4.82;;
18499;SDS011;9379;52.134;11.576;2023-05-10T14:55:07;5.20;;;4.70;;
18499;SDS011;9379;52.134;11.576;2023-05-10T14:57:34;6.15;;;5.68;;
18499;SDS011;9379;52.134;11.576;2023-05-10T15:00:03;5.18;;;4.78;;